Terminal Aerodrome Forecast
Issued by NWS King Salmon, AK

Home | Current Version | Previous Version | Text Only | Print | Product List | Glossary On
Versions: 1 2 3 4 5 6 7 8 9 10 11 12 13 14 15 16 17 18 19 20 21 22 23
000
FTAK31 PANC 240540
TAFAKN
TAF
PAKN 240540Z 2406/2506 17008KT P6SM -SHRA BKN040
     FM241600 10005KT P6SM -RA SCT015 OVC030
     FM242000 16015G25KT P6SM SCT030 BKN050=

USA.gov is the U.S. government's official web portal to all federal, state and local government web resources and services.